Oakland, MD (21550)

10:12 AM EDT on March 26, 2017 (GMT -0400)
terra alta wv 26764 | | Change Station

Elev 2333 ft 39.45 °N, 79.55 °W | Updated 31 seconds ago

Overcast
Overcast
48.9 °F
Feels Like 49 °F
N
2.0
Wind Variable Wind from WSW

Today
High -- | Low -- °F
--% Chance of Precip.
Yesterday
High -- | Low -- °F
Precip. -- in
Pressure 30.20 in
Visibility 0.2 miles
Clouds Mostly Cloudy 100 ft
Windchill 49 °F
Dew Point 46 °F
Humidity 91%
Rainfall 0.00 in
Snow Depth Not available.
7:11 AM 7:35 PM
Waning Crescent, 3% visible
METAR K2G4 261400Z AUTO 13014KT M1/4SM FG BKN001 05/05 A3020 RMK AO1
Pressure 30.20 in
Visibility 0.2 miles
Clouds Mostly Cloudy 100 ft
Windchill 49 °F
Dew Point 46 °F
Humidity 91%
Rainfall 0.00 in
Snow Depth Not available.
7:11 AM 7:35 PM
Waning Crescent, 3% visible
METAR K2G4 261400Z AUTO 13014KT M1/4SM FG BKN001 05/05 A3020 RMK AO1

Get Severe Weather Alerts

Thanks for signing up!

Be on the lookout for a verification email in your inbox.

You'll start receiving the daily forecast at 8 AM.

×

10-Day Weather Forecast

Almanac

Astronomy

Mar. 26, 2017 Rise Set
Actual Time
Civil Twilight
Nautical Twilight
Astronomical Twilight
Moon
Length of Visible Light
Length of Day
Tomorrow will be .
, % of the Moon is Illuminated

Today's Extremes

State Highs State Lows

Community

WunderPhotos

Upload Photos

1,962,540 photos uploaded!

WunderBlog® & News

Nearby

Air Quality

  Air Quality AQ Index Pollutant
Not available.

Snow Depth

Station Depth Elevation

Earthquake Activity

City Distance Mag. Time & Date
Minimum magnitude displayed is 2.5.

Earthquake Activity

City Distance Mag. Time & Date
Minimum magnitude displayed is 2.5.

Coastal Water Temperatures

Place Temperature

Stations

Nearby Weather Stations

Station Location Temp. Windchill Dew Point Humidity Wind Precip. Elev Updated Type
                   

Watches & Warnings

There are currently no watches in effect.